sensor_id;sensor_type;location;lat;lon;timestamp;P1;durP1;ratioP1;P2;durP2;ratioP2
30818;SDS011;17546;42.674;23.284;2022-08-30T00:00:11;27.27;;;10.55;;
30818;SDS011;17546;42.674;23.284;2022-08-30T00:03:00;23.50;;;10.90;;
30818;SDS011;17546;42.674;23.284;2022-08-30T00:05:27;19.38;;;10.27;;
30818;SDS011;17546;42.674;23.284;2022-08-30T00:07:54;21.35;;;10.27;;
30818;SDS011;17546;42.674;23.284;2022-08-30T00:10:20;18.45;;;10.75;;
30818;SDS011;17546;42.674;23.284;2022-08-30T00:12:46;16.55;;;9.88;;
30818;SDS011;17546;42.674;23.284;2022-08-30T00:15:13;19.98;;;10.90;;
30818;SDS011;17546;42.674;23.284;2022-08-30T00:17:39;22.42;;;11.50;;
30818;SDS011;17546;42.674;23.284;2022-08-30T00:20:07;18.33;;;10.35;;
30818;SDS011;17546;42.674;23.284;2022-08-30T00:22:34;20.55;;;9.88;;
30818;SDS011;17546;42.674;23.284;2022-08-30T00:25:00;17.42;;;9.70;;
30818;SDS011;17546;42.674;23.284;2022-08-30T00:27:33;19.02;;;10.07;;
30818;SDS011;17546;42.674;23.284;2022-08-30T00:29:58;21.60;;;9.95;;
30818;SDS011;17546;42.674;23.284;2022-08-30T00:32:24;24.38;;;10.38;;
30818;SDS011;17546;42.674;23.284;2022-08-30T00:34:50;21.65;;;10.90;;
30818;SDS011;17546;42.674;23.284;2022-08-30T00:37:17;20.27;;;10.65;;
30818;SDS011;17546;42.674;23.284;2022-08-30T00:39:43;15.50;;;10.02;;
30818;SDS011;17546;42.674;23.284;2022-08-30T00:42:09;19.63;;;10.00;;
30818;SDS011;17546;42.674;23.284;2022-08-30T00:44:36;18.45;;;9.77;;
30818;SDS011;17546;42.674;23.284;2022-08-30T00:47:01;17.02;;;10.07;;
30818;SDS011;17546;42.674;23.284;2022-08-30T00:49:27;21.35;;;10.32;;
30818;SDS011;17546;42.674;23.284;2022-08-30T00:51:54;20.13;;;10.23;;
30818;SDS011;17546;42.674;23.284;2022-08-30T00:54:20;22.90;;;10.05;;
30818;SDS011;17546;42.674;23.284;2022-08-30T00:56:47;15.52;;;9.40;;
30818;SDS011;17546;42.674;23.284;2022-08-30T00:59:13;14.02;;;9.55;;
30818;SDS011;17546;42.674;23.284;2022-08-30T01:01:39;17.98;;;9.68;;
30818;SDS011;17546;42.674;23.284;2022-08-30T01:04:06;20.20;;;10.57;;
30818;SDS011;17546;42.674;23.284;2022-08-30T01:06:34;17.08;;;9.43;;
30818;SDS011;17546;42.674;23.284;2022-08-30T01:09:00;20.83;;;10.30;;
30818;SDS011;17546;42.674;23.284;2022-08-30T01:11:28;18.67;;;10.25;;
30818;SDS011;17546;42.674;23.284;2022-08-30T01:13:57;19.92;;;10.23;;
30818;SDS011;17546;42.674;23.284;2022-08-30T01:16:23;18.23;;;10.10;;
30818;SDS011;17546;42.674;23.284;2022-08-30T01:18:50;18.23;;;10.10;;
30818;SDS011;17546;42.674;23.284;2022-08-30T01:21:26;19.48;;;9.82;;
30818;SDS011;17546;42.674;23.284;2022-08-30T01:24:01;13.50;;;9.27;;
30818;SDS011;17546;42.674;23.284;2022-08-30T01:26:27;16.17;;;9.55;;
30818;SDS011;17546;42.674;23.284;2022-08-30T01:28:56;24.15;;;9.80;;
30818;SDS011;17546;42.674;23.284;2022-08-30T01:31:26;14.20;;;9.10;;
30818;SDS011;17546;42.674;23.284;2022-08-30T01:33:52;18.48;;;9.80;;
30818;SDS011;17546;42.674;23.284;2022-08-30T01:36:20;11.55;;;9.13;;
30818;SDS011;17546;42.674;23.284;2022-08-30T01:38:50;21.85;;;8.80;;
30818;SDS011;17546;42.674;23.284;2022-08-30T01:41:28;15.80;;;8.85;;
30818;SDS011;17546;42.674;23.284;2022-08-30T01:44:01;22.02;;;9.65;;
30818;SDS011;17546;42.674;23.284;2022-08-30T01:46:34;18.40;;;8.90;;
30818;SDS011;17546;42.674;23.284;2022-08-30T01:49:05;15.55;;;9.00;;
30818;SDS011;17546;42.674;23.284;2022-08-30T01:51:32;15.35;;;8.90;;
30818;SDS011;17546;42.674;23.284;2022-08-30T01:53:58;17.23;;;9.10;;
30818;SDS011;17546;42.674;23.284;2022-08-30T01:56:24;17.73;;;9.00;;
30818;SDS011;17546;42.674;23.284;2022-08-30T01:58:51;16.35;;;8.25;;
30818;SDS011;17546;42.674;23.284;2022-08-30T02:01:18;20.20;;;9.23;;
30818;SDS011;17546;42.674;23.284;2022-08-30T02:03:46;17.70;;;9.05;;
30818;SDS011;17546;42.674;23.284;2022-08-30T02:06:13;12.90;;;8.93;;
30818;SDS011;17546;42.674;23.284;2022-08-30T02:08:43;16.42;;;9.35;;
30818;SDS011;17546;42.674;23.284;2022-08-30T02:11:10;20.27;;;10.25;;
30818;SDS011;17546;42.674;23.284;2022-08-30T02:13:36;17.42;;;9.65;;
30818;SDS011;17546;42.674;23.284;2022-08-30T02:16:04;21.60;;;10.25;;
30818;SDS011;17546;42.674;23.284;2022-08-30T02:18:31;15.48;;;9.77;;
30818;SDS011;17546;42.674;23.284;2022-08-30T02:20:57;15.65;;;9.88;;
30818;SDS011;17546;42.674;23.284;2022-08-30T02:23:23;19.45;;;10.48;;
30818;SDS011;17546;42.674;23.284;2022-08-30T02:25:48;17.30;;;10.55;;
30818;SDS011;17546;42.674;23.284;2022-08-30T02:28:14;19.42;;;9.70;;
30818;SDS011;17546;42.674;23.284;2022-08-30T02:30:40;18.17;;;10.05;;
30818;SDS011;17546;42.674;23.284;2022-08-30T02:33:06;17.52;;;10.00;;
30818;SDS011;17546;42.674;23.284;2022-08-30T02:35:32;23.15;;;10.23;;
30818;SDS011;17546;42.674;23.284;2022-08-30T02:37:57;17.25;;;10.15;;
30818;SDS011;17546;42.674;23.284;2022-08-30T02:40:23;26.30;;;10.18;;
30818;SDS011;17546;42.674;23.284;2022-08-30T02:42:48;14.07;;;9.88;;
30818;SDS011;17546;42.674;23.284;2022-08-30T02:45:14;17.38;;;10.10;;
30818;SDS011;17546;42.674;23.284;2022-08-30T02:47:40;17.52;;;10.70;;
30818;SDS011;17546;42.674;23.284;2022-08-30T02:50:07;22.65;;;9.85;;
30818;SDS011;17546;42.674;23.284;2022-08-30T02:52:34;17.95;;;9.88;;
30818;SDS011;17546;42.674;23.284;2022-08-30T02:55:00;15.15;;;9.98;;
30818;SDS011;17546;42.674;23.284;2022-08-30T02:57:26;16.92;;;10.70;;
30818;SDS011;17546;42.674;23.284;2022-08-30T02:59:51;21.80;;;11.13;;
30818;SDS011;17546;42.674;23.284;2022-08-30T03:02:17;18.08;;;11.55;;
30818;SDS011;17546;42.674;23.284;2022-08-30T03:04:43;18.80;;;11.70;;
30818;SDS011;17546;42.674;23.284;2022-08-30T03:07:09;19.23;;;11.23;;
30818;SDS011;17546;42.674;23.284;2022-08-30T03:09:36;22.45;;;10.93;;
30818;SDS011;17546;42.674;23.284;2022-08-30T03:12:03;19.02;;;11.00;;
30818;SDS011;17546;42.674;23.284;2022-08-30T03:14:30;22.15;;;12.10;;
30818;SDS011;17546;42.674;23.284;2022-08-30T03:16:56;23.42;;;11.60;;
30818;SDS011;17546;42.674;23.284;2022-08-30T03:19:22;18.40;;;11.60;;
30818;SDS011;17546;42.674;23.284;2022-08-30T03:21:47;15.75;;;11.23;;
30818;SDS011;17546;42.674;23.284;2022-08-30T03:24:13;18.23;;;11.43;;
30818;SDS011;17546;42.674;23.284;2022-08-30T03:26:38;21.67;;;11.40;;
30818;SDS011;17546;42.674;23.284;2022-08-30T03:29:04;22.05;;;11.20;;
30818;SDS011;17546;42.674;23.284;2022-08-30T03:31:29;18.15;;;11.15;;
30818;SDS011;17546;42.674;23.284;2022-08-30T03:33:55;19.20;;;11.48;;
30818;SDS011;17546;42.674;23.284;2022-08-30T03:36:20;23.50;;;11.18;;
30818;SDS011;17546;42.674;23.284;2022-08-30T03:38:46;25.00;;;11.43;;
30818;SDS011;17546;42.674;23.284;2022-08-30T03:41:11;19.75;;;12.55;;
30818;SDS011;17546;42.674;23.284;2022-08-30T03:43:37;20.98;;;12.38;;
30818;SDS011;17546;42.674;23.284;2022-08-30T03:46:02;16.65;;;11.98;;
30818;SDS011;17546;42.674;23.284;2022-08-30T03:48:28;24.10;;;12.50;;
30818;SDS011;17546;42.674;23.284;2022-08-30T03:50:54;23.55;;;12.50;;
30818;SDS011;17546;42.674;23.284;2022-08-30T03:53:20;23.55;;;12.95;;
30818;SDS011;17546;42.674;23.284;2022-08-30T03:55:46;19.13;;;12.27;;
30818;SDS011;17546;42.674;23.284;2022-08-30T03:58:11;21.65;;;12.65;;
30818;SDS011;17546;42.674;23.284;2022-08-30T04:00:37;26.52;;;13.02;;
30818;SDS011;17546;42.674;23.284;2022-08-30T04:03:02;22.30;;;13.85;;
30818;SDS011;17546;42.674;23.284;2022-08-30T04:05:27;20.33;;;13.65;;
30818;SDS011;17546;42.674;23.284;2022-08-30T04:07:53;23.23;;;13.98;;
30818;SDS011;17546;42.674;23.284;2022-08-30T04:10:19;21.55;;;13.32;;
30818;SDS011;17546;42.674;23.284;2022-08-30T04:12:46;25.65;;;12.43;;
30818;SDS011;17546;42.674;23.284;2022-08-30T04:15:12;33.42;;;13.00;;
30818;SDS011;17546;42.674;23.284;2022-08-30T04:17:38;25.45;;;12.80;;
30818;SDS011;17546;42.674;23.284;2022-08-30T04:20:03;22.15;;;13.15;;
30818;SDS011;17546;42.674;23.284;2022-08-30T04:22:29;25.83;;;13.73;;
30818;SDS011;17546;42.674;23.284;2022-08-30T04:24:55;18.42;;;13.18;;
30818;SDS011;17546;42.674;23.284;2022-08-30T04:27:20;21.80;;;13.48;;
30818;SDS011;17546;42.674;23.284;2022-08-30T04:29:46;24.23;;;13.65;;
30818;SDS011;17546;42.674;23.284;2022-08-30T04:32:12;19.27;;;13.00;;
30818;SDS011;17546;42.674;23.284;2022-08-30T04:34:38;25.63;;;13.75;;
30818;SDS011;17546;42.674;23.284;2022-08-30T04:37:03;30.98;;;15.05;;
30818;SDS011;17546;42.674;23.284;2022-08-30T04:39:29;23.15;;;14.10;;
30818;SDS011;17546;42.674;23.284;2022-08-30T04:41:55;23.98;;;14.07;;
30818;SDS011;17546;42.674;23.284;2022-08-30T04:44:21;26.95;;;14.45;;
30818;SDS011;17546;42.674;23.284;2022-08-30T04:46:47;24.42;;;15.55;;
30818;SDS011;17546;42.674;23.284;2022-08-30T04:49:13;31.42;;;14.07;;
30818;SDS011;17546;42.674;23.284;2022-08-30T04:51:39;22.83;;;14.27;;
30818;SDS011;17546;42.674;23.284;2022-08-30T04:54:05;21.67;;;12.85;;
30818;SDS011;17546;42.674;23.284;2022-08-30T04:56:30;23.88;;;13.77;;
30818;SDS011;17546;42.674;23.284;2022-08-30T04:58:57;28.45;;;14.60;;
30818;SDS011;17546;42.674;23.284;2022-08-30T05:01:24;28.52;;;14.00;;
30818;SDS011;17546;42.674;23.284;2022-08-30T05:03:52;25.15;;;14.52;;
30818;SDS011;17546;42.674;23.284;2022-08-30T05:06:18;20.50;;;14.63;;
30818;SDS011;17546;42.674;23.284;2022-08-30T05:08:44;28.38;;;14.00;;
30818;SDS011;17546;42.674;23.284;2022-08-30T05:11:10;25.48;;;14.25;;
30818;SDS011;17546;42.674;23.284;2022-08-30T05:13:36;32.70;;;14.07;;
30818;SDS011;17546;42.674;23.284;2022-08-30T05:16:03;25.30;;;14.27;;
30818;SDS011;17546;42.674;23.284;2022-08-30T05:18:30;24.13;;;15.15;;
30818;SDS011;17546;42.674;23.284;2022-08-30T05:21:15;30.08;;;14.77;;
30818;SDS011;17546;42.674;23.284;2022-08-30T05:23:46;27.80;;;14.85;;
30818;SDS011;17546;42.674;23.284;2022-08-30T05:26:12;32.67;;;15.30;;
30818;SDS011;17546;42.674;23.284;2022-08-30T05:28:43;22.30;;;15.90;;
30818;SDS011;17546;42.674;23.284;2022-08-30T05:31:23;29.08;;;16.20;;
30818;SDS011;17546;42.674;23.284;2022-08-30T05:33:54;32.40;;;15.18;;
30818;SDS011;17546;42.674;23.284;2022-08-30T05:36:22;26.65;;;14.93;;
30818;SDS011;17546;42.674;23.284;2022-08-30T05:38:49;22.88;;;15.05;;
30818;SDS011;17546;42.674;23.284;2022-08-30T05:41:17;31.05;;;14.93;;
30818;SDS011;17546;42.674;23.284;2022-08-30T05:43:43;34.83;;;15.13;;
30818;SDS011;17546;42.674;23.284;2022-08-30T05:46:09;27.77;;;15.48;;
30818;SDS011;17546;42.674;23.284;2022-08-30T05:48:36;28.00;;;15.15;;
30818;SDS011;17546;42.674;23.284;2022-08-30T05:51:04;28.33;;;14.90;;
30818;SDS011;17546;42.674;23.284;2022-08-30T05:53:34;31.55;;;14.02;;
30818;SDS011;17546;42.674;23.284;2022-08-30T05:56:00;26.45;;;14.75;;
30818;SDS011;17546;42.674;23.284;2022-08-30T05:58:28;25.98;;;14.93;;
30818;SDS011;17546;42.674;23.284;2022-08-30T06:00:54;26.75;;;14.93;;
30818;SDS011;17546;42.674;23.284;2022-08-30T06:03:19;23.85;;;14.52;;
30818;SDS011;17546;42.674;23.284;2022-08-30T06:05:45;33.58;;;15.80;;
30818;SDS011;17546;42.674;23.284;2022-08-30T06:08:10;20.67;;;14.95;;
30818;SDS011;17546;42.674;23.284;2022-08-30T06:10:36;28.60;;;16.63;;
30818;SDS011;17546;42.674;23.284;2022-08-30T06:13:02;27.65;;;16.23;;
30818;SDS011;17546;42.674;23.284;2022-08-30T06:15:27;28.38;;;16.48;;
30818;SDS011;17546;42.674;23.284;2022-08-30T06:17:53;24.95;;;16.35;;
30818;SDS011;17546;42.674;23.284;2022-08-30T06:20:18;27.83;;;15.77;;
30818;SDS011;17546;42.674;23.284;2022-08-30T06:22:44;25.95;;;15.52;;
30818;SDS011;17546;42.674;23.284;2022-08-30T06:25:10;27.38;;;15.48;;
30818;SDS011;17546;42.674;23.284;2022-08-30T06:27:36;36.15;;;16.02;;
30818;SDS011;17546;42.674;23.284;2022-08-30T06:30:03;31.23;;;17.23;;
30818;SDS011;17546;42.674;23.284;2022-08-30T06:32:32;23.20;;;13.77;;
30818;SDS011;17546;42.674;23.284;2022-08-30T06:34:58;28.20;;;14.32;;
30818;SDS011;17546;42.674;23.284;2022-08-30T06:37:23;27.08;;;15.00;;
30818;SDS011;17546;42.674;23.284;2022-08-30T06:39:49;32.42;;;16.15;;
30818;SDS011;17546;42.674;23.284;2022-08-30T06:42:14;35.25;;;16.90;;
30818;SDS011;17546;42.674;23.284;2022-08-30T06:44:39;35.80;;;17.58;;
30818;SDS011;17546;42.674;23.284;2022-08-30T06:47:05;38.40;;;18.88;;
30818;SDS011;17546;42.674;23.284;2022-08-30T06:49:31;47.13;;;19.25;;
30818;SDS011;17546;42.674;23.284;2022-08-30T06:51:56;32.95;;;16.92;;
30818;SDS011;17546;42.674;23.284;2022-08-30T06:54:22;30.38;;;17.13;;
30818;SDS011;17546;42.674;23.284;2022-08-30T06:56:47;68.47;;;41.00;;
30818;SDS011;17546;42.674;23.284;2022-08-30T06:59:13;51.58;;;26.40;;
30818;SDS011;17546;42.674;23.284;2022-08-30T07:01:38;33.10;;;18.02;;
30818;SDS011;17546;42.674;23.284;2022-08-30T07:04:04;32.92;;;18.10;;
30818;SDS011;17546;42.674;23.284;2022-08-30T07:06:29;32.00;;;18.13;;
30818;SDS011;17546;42.674;23.284;2022-08-30T07:08:56;33.15;;;18.23;;
30818;SDS011;17546;42.674;23.284;2022-08-30T07:11:29;29.30;;;17.52;;
30818;SDS011;17546;42.674;23.284;2022-08-30T07:13:56;29.90;;;17.73;;
30818;SDS011;17546;42.674;23.284;2022-08-30T07:16:22;35.45;;;18.80;;
30818;SDS011;17546;42.674;23.284;2022-08-30T07:18:48;34.17;;;18.17;;
30818;SDS011;17546;42.674;23.284;2022-08-30T07:21:21;33.67;;;17.92;;
30818;SDS011;17546;42.674;23.284;2022-08-30T07:23:50;34.13;;;20.90;;
30818;SDS011;17546;42.674;23.284;2022-08-30T07:26:18;30.05;;;18.05;;
30818;SDS011;17546;42.674;23.284;2022-08-30T07:29:05;35.45;;;19.52;;
30818;SDS011;17546;42.674;23.284;2022-08-30T07:31:31;36.33;;;19.23;;
30818;SDS011;17546;42.674;23.284;2022-08-30T07:33:58;29.73;;;18.77;;
30818;SDS011;17546;42.674;23.284;2022-08-30T07:36:23;29.45;;;19.25;;
30818;SDS011;17546;42.674;23.284;2022-08-30T07:38:49;32.85;;;19.63;;
30818;SDS011;17546;42.674;23.284;2022-08-30T07:41:20;30.08;;;20.40;;
30818;SDS011;17546;42.674;23.284;2022-08-30T07:43:47;31.10;;;19.60;;
30818;SDS011;17546;42.674;23.284;2022-08-30T07:46:13;29.65;;;19.25;;
30818;SDS011;17546;42.674;23.284;2022-08-30T07:48:40;30.10;;;17.98;;
30818;SDS011;17546;42.674;23.284;2022-08-30T07:51:09;28.05;;;17.17;;
30818;SDS011;17546;42.674;23.284;2022-08-30T07:53:36;28.58;;;16.27;;
30818;SDS011;17546;42.674;23.284;2022-08-30T07:56:02;25.02;;;16.83;;
30818;SDS011;17546;42.674;23.284;2022-08-30T07:58:28;32.85;;;17.40;;
30818;SDS011;17546;42.674;23.284;2022-08-30T08:00:53;25.55;;;17.08;;
30818;SDS011;17546;42.674;23.284;2022-08-30T08:03:23;21.63;;;16.45;;
30818;SDS011;17546;42.674;23.284;2022-08-30T08:05:49;28.45;;;17.98;;
30818;SDS011;17546;42.674;23.284;2022-08-30T08:08:17;35.10;;;19.40;;
30818;SDS011;17546;42.674;23.284;2022-08-30T08:10:43;28.23;;;19.35;;
30818;SDS011;17546;42.674;23.284;2022-08-30T08:13:09;37.42;;;19.23;;
30818;SDS011;17546;42.674;23.284;2022-08-30T08:15:35;29.45;;;18.20;;
30818;SDS011;17546;42.674;23.284;2022-08-30T08:18:01;32.22;;;18.80;;
30818;SDS011;17546;42.674;23.284;2022-08-30T08:20:27;31.52;;;19.42;;
30818;SDS011;17546;42.674;23.284;2022-08-30T08:22:53;30.65;;;18.35;;
30818;SDS011;17546;42.674;23.284;2022-08-30T08:25:19;27.63;;;18.60;;
30818;SDS011;17546;42.674;23.284;2022-08-30T08:27:45;29.48;;;17.27;;
30818;SDS011;17546;42.674;23.284;2022-08-30T08:30:12;31.45;;;16.15;;
30818;SDS011;17546;42.674;23.284;2022-08-30T08:32:38;24.15;;;15.57;;
30818;SDS011;17546;42.674;23.284;2022-08-30T08:35:15;23.42;;;15.82;;
30818;SDS011;17546;42.674;23.284;2022-08-30T08:37:41;31.33;;;14.48;;
30818;SDS011;17546;42.674;23.284;2022-08-30T08:40:08;21.27;;;14.38;;
30818;SDS011;17546;42.674;23.284;2022-08-30T08:45:07;28.67;;;16.17;;
30818;SDS011;17546;42.674;23.284;2022-08-30T08:50:16;25.38;;;15.90;;
30818;SDS011;17546;42.674;23.284;2022-08-30T08:55:30;28.95;;;17.35;;
30818;SDS011;17546;42.674;23.284;2022-08-30T08:57:56;28.10;;;15.75;;
30818;SDS011;17546;42.674;23.284;2022-08-30T09:00:22;26.75;;;16.17;;
30818;SDS011;17546;42.674;23.284;2022-08-30T09:02:54;27.42;;;15.95;;
30818;SDS011;17546;42.674;23.284;2022-08-30T09:05:22;31.65;;;15.80;;
30818;SDS011;17546;42.674;23.284;2022-08-30T09:07:57;24.27;;;15.05;;
30818;SDS011;17546;42.674;23.284;2022-08-30T09:10:26;27.83;;;15.07;;
30818;SDS011;17546;42.674;23.284;2022-08-30T09:12:53;29.80;;;17.23;;
30818;SDS011;17546;42.674;23.284;2022-08-30T09:17:49;40.88;;;18.10;;
30818;SDS011;17546;42.674;23.284;2022-08-30T09:22:58;38.85;;;17.65;;
30818;SDS011;17546;42.674;23.284;2022-08-30T09:28:26;30.75;;;18.38;;
30818;SDS011;17546;42.674;23.284;2022-08-30T09:31:16;35.25;;;21.85;;
30818;SDS011;17546;42.674;23.284;2022-08-30T09:33:52;39.88;;;22.48;;
30818;SDS011;17546;42.674;23.284;2022-08-30T09:36:31;38.60;;;23.35;;
30818;SDS011;17546;42.674;23.284;2022-08-30T09:44:57;30.83;;;21.40;;
30818;SDS011;17546;42.674;23.284;2022-08-30T09:47:36;36.33;;;21.65;;
30818;SDS011;17546;42.674;23.284;2022-08-30T10:01:21;29.88;;;18.10;;
30818;SDS011;17546;42.674;23.284;2022-08-30T10:04:13;34.95;;;19.98;;
30818;SDS011;17546;42.674;23.284;2022-08-30T10:06:47;37.30;;;19.52;;
30818;SDS011;17546;42.674;23.284;2022-08-30T10:09:27;39.53;;;19.42;;
30818;SDS011;17546;42.674;23.284;2022-08-30T10:22:33;35.47;;;18.30;;
30818;SDS011;17546;42.674;23.284;2022-08-30T10:25:24;40.75;;;19.40;;
30818;SDS011;17546;42.674;23.284;2022-08-30T10:30:28;34.00;;;18.92;;
30818;SDS011;17546;42.674;23.284;2022-08-30T10:33:04;33.28;;;18.90;;
30818;SDS011;17546;42.674;23.284;2022-08-30T10:35:36;28.15;;;18.80;;
30818;SDS011;17546;42.674;23.284;2022-08-30T10:38:13;32.00;;;18.83;;
30818;SDS011;17546;42.674;23.284;2022-08-30T10:40:46;34.67;;;18.77;;
30818;SDS011;17546;42.674;23.284;2022-08-30T10:43:48;39.28;;;18.85;;
30818;SDS011;17546;42.674;23.284;2022-08-30T10:46:18;30.05;;;17.40;;
30818;SDS011;17546;42.674;23.284;2022-08-30T10:48:45;31.15;;;18.85;;
30818;SDS011;17546;42.674;23.284;2022-08-30T10:51:35;38.30;;;18.60;;
30818;SDS011;17546;42.674;23.284;2022-08-30T10:56:35;36.67;;;18.42;;
30818;SDS011;17546;42.674;23.284;2022-08-30T10:59:04;34.75;;;18.67;;
30818;SDS011;17546;42.674;23.284;2022-08-30T11:01:41;39.08;;;18.52;;
30818;SDS011;17546;42.674;23.284;2022-08-30T11:12:36;31.05;;;16.65;;
30818;SDS011;17546;42.674;23.284;2022-08-30T11:15:25;29.27;;;17.40;;
30818;SDS011;17546;42.674;23.284;2022-08-30T11:18:10;37.58;;;17.35;;
30818;SDS011;17546;42.674;23.284;2022-08-30T11:20:40;30.58;;;16.33;;
30818;SDS011;17546;42.674;23.284;2022-08-30T11:33:30;30.92;;;15.75;;
30818;SDS011;17546;42.674;23.284;2022-08-30T11:36:10;31.55;;;16.27;;
30818;SDS011;17546;42.674;23.284;2022-08-30T11:44:14;26.02;;;14.75;;
30818;SDS011;17546;42.674;23.284;2022-08-30T11:46:59;36.45;;;14.60;;
30818;SDS011;17546;42.674;23.284;2022-08-30T11:55:15;20.25;;;12.23;;
30818;SDS011;17546;42.674;23.284;2022-08-30T12:00:32;23.58;;;11.40;;
30818;SDS011;17546;42.674;23.284;2022-08-30T12:08:03;18.73;;;10.70;;
30818;SDS011;17546;42.674;23.284;2022-08-30T12:10:50;30.20;;;11.30;;
30818;SDS011;17546;42.674;23.284;2022-08-30T12:13:52;23.60;;;11.80;;
30818;SDS011;17546;42.674;23.284;2022-08-30T12:16:25;22.92;;;11.48;;
30818;SDS011;17546;42.674;23.284;2022-08-30T12:19:16;28.90;;;12.00;;
30818;SDS011;17546;42.674;23.284;2022-08-30T12:21:52;23.95;;;12.45;;
30818;SDS011;17546;42.674;23.284;2022-08-30T12:24:28;22.45;;;10.75;;
30818;SDS011;17546;42.674;23.284;2022-08-30T12:26:58;20.05;;;10.85;;
30818;SDS011;17546;42.674;23.284;2022-08-30T12:29:29;31.02;;;10.52;;
30818;SDS011;17546;42.674;23.284;2022-08-30T12:32:12;25.73;;;11.00;;
30818;SDS011;17546;42.674;23.284;2022-08-30T12:42:33;28.10;;;10.68;;
30818;SDS011;17546;42.674;23.284;2022-08-30T12:45:18;26.42;;;11.15;;
30818;SDS011;17546;42.674;23.284;2022-08-30T12:48:07;22.90;;;11.02;;
30818;SDS011;17546;42.674;23.284;2022-08-30T12:50:42;27.08;;;11.43;;
30818;SDS011;17546;42.674;23.284;2022-08-30T12:53:21;28.33;;;10.65;;
30818;SDS011;17546;42.674;23.284;2022-08-30T12:56:13;22.80;;;10.77;;
30818;SDS011;17546;42.674;23.284;2022-08-30T12:58:41;25.90;;;11.45;;
30818;SDS011;17546;42.674;23.284;2022-08-30T13:03:56;26.10;;;10.45;;
30818;SDS011;17546;42.674;23.284;2022-08-30T13:06:34;27.83;;;11.18;;
30818;SDS011;17546;42.674;23.284;2022-08-30T13:09:06;22.35;;;10.60;;
30818;SDS011;17546;42.674;23.284;2022-08-30T13:11:32;27.30;;;10.88;;
30818;SDS011;17546;42.674;23.284;2022-08-30T13:17:32;36.00;;;11.00;;
30818;SDS011;17546;42.674;23.284;2022-08-30T13:23:03;24.92;;;11.00;;
30818;SDS011;17546;42.674;23.284;2022-08-30T13:25:34;28.45;;;10.98;;
30818;SDS011;17546;42.674;23.284;2022-08-30T13:28:02;20.98;;;11.88;;
30818;SDS011;17546;42.674;23.284;2022-08-30T13:30:30;25.70;;;12.23;;
30818;SDS011;17546;42.674;23.284;2022-08-30T13:32:57;22.73;;;12.05;;
30818;SDS011;17546;42.674;23.284;2022-08-30T13:35:25;27.58;;;12.38;;
30818;SDS011;17546;42.674;23.284;2022-08-30T13:37:51;28.88;;;11.88;;
30818;SDS011;17546;42.674;23.284;2022-08-30T13:40:17;24.52;;;11.32;;
30818;SDS011;17546;42.674;23.284;2022-08-30T13:42:44;29.00;;;11.15;;
30818;SDS011;17546;42.674;23.284;2022-08-30T13:45:10;17.90;;;10.80;;
30818;SDS011;17546;42.674;23.284;2022-08-30T13:47:37;16.88;;;10.60;;
30818;SDS011;17546;42.674;23.284;2022-08-30T13:50:03;21.85;;;11.30;;
30818;SDS011;17546;42.674;23.284;2022-08-30T13:52:32;30.33;;;11.40;;
30818;SDS011;17546;42.674;23.284;2022-08-30T13:54:57;21.02;;;11.30;;
30818;SDS011;17546;42.674;23.284;2022-08-30T13:57:27;26.58;;;11.82;;
30818;SDS011;17546;42.674;23.284;2022-08-30T13:59:53;23.23;;;11.85;;
30818;SDS011;17546;42.674;23.284;2022-08-30T14:02:19;26.02;;;11.70;;
30818;SDS011;17546;42.674;23.284;2022-08-30T14:04:44;28.92;;;13.55;;
30818;SDS011;17546;42.674;23.284;2022-08-30T14:07:10;25.75;;;12.25;;
30818;SDS011;17546;42.674;23.284;2022-08-30T14:09:35;30.15;;;11.68;;
30818;SDS011;17546;42.674;23.284;2022-08-30T14:12:01;28.05;;;11.68;;
30818;SDS011;17546;42.674;23.284;2022-08-30T14:14:27;20.42;;;11.20;;
30818;SDS011;17546;42.674;23.284;2022-08-30T14:16:53;22.10;;;12.00;;
30818;SDS011;17546;42.674;23.284;2022-08-30T14:19:18;21.02;;;10.95;;
30818;SDS011;17546;42.674;23.284;2022-08-30T14:21:44;23.42;;;11.48;;
30818;SDS011;17546;42.674;23.284;2022-08-30T14:24:10;19.33;;;11.73;;
30818;SDS011;17546;42.674;23.284;2022-08-30T14:26:40;25.65;;;11.70;;
30818;SDS011;17546;42.674;23.284;2022-08-30T14:29:10;22.90;;;11.75;;
30818;SDS011;17546;42.674;23.284;2022-08-30T14:31:39;22.25;;;11.70;;
30818;SDS011;17546;42.674;23.284;2022-08-30T14:34:06;29.90;;;11.60;;
30818;SDS011;17546;42.674;23.284;2022-08-30T14:36:33;23.83;;;11.80;;
30818;SDS011;17546;42.674;23.284;2022-08-30T14:39:00;26.83;;;11.60;;
30818;SDS011;17546;42.674;23.284;2022-08-30T14:41:26;21.65;;;11.90;;
30818;SDS011;17546;42.674;23.284;2022-08-30T14:43:52;20.33;;;11.85;;
30818;SDS011;17546;42.674;23.284;2022-08-30T14:46:17;19.38;;;11.45;;
30818;SDS011;17546;42.674;23.284;2022-08-30T14:48:43;21.17;;;11.10;;
30818;SDS011;17546;42.674;23.284;2022-08-30T14:51:16;28.00;;;11.65;;
30818;SDS011;17546;42.674;23.284;2022-08-30T14:53:57;31.08;;;12.43;;
30818;SDS011;17546;42.674;23.284;2022-08-30T14:56:23;18.35;;;12.40;;
30818;SDS011;17546;42.674;23.284;2022-08-30T14:58:49;20.88;;;11.65;;
30818;SDS011;17546;42.674;23.284;2022-08-30T15:01:16;18.92;;;11.52;;
30818;SDS011;17546;42.674;23.284;2022-08-30T15:03:42;24.15;;;11.75;;
30818;SDS011;17546;42.674;23.284;2022-08-30T15:06:08;27.83;;;12.00;;
30818;SDS011;17546;42.674;23.284;2022-08-30T15:08:35;19.77;;;11.73;;
30818;SDS011;17546;42.674;23.284;2022-08-30T15:11:05;25.20;;;13.23;;
30818;SDS011;17546;42.674;23.284;2022-08-30T15:13:35;20.55;;;12.32;;
30818;SDS011;17546;42.674;23.284;2022-08-30T15:16:01;24.58;;;11.60;;
30818;SDS011;17546;42.674;23.284;2022-08-30T15:18:33;26.35;;;12.23;;
30818;SDS011;17546;42.674;23.284;2022-08-30T15:20:58;24.38;;;12.70;;
30818;SDS011;17546;42.674;23.284;2022-08-30T15:23:24;23.10;;;12.38;;
30818;SDS011;17546;42.674;23.284;2022-08-30T15:25:49;26.98;;;13.82;;
30818;SDS011;17546;42.674;23.284;2022-08-30T15:28:15;26.58;;;12.70;;
30818;SDS011;17546;42.674;23.284;2022-08-30T15:30:40;21.17;;;11.57;;
30818;SDS011;17546;42.674;23.284;2022-08-30T15:33:06;23.98;;;12.82;;
30818;SDS011;17546;42.674;23.284;2022-08-30T15:35:32;29.17;;;14.10;;
30818;SDS011;17546;42.674;23.284;2022-08-30T15:37:57;23.35;;;12.73;;
30818;SDS011;17546;42.674;23.284;2022-08-30T15:40:23;30.15;;;13.05;;
30818;SDS011;17546;42.674;23.284;2022-08-30T15:42:48;30.02;;;12.93;;
30818;SDS011;17546;42.674;23.284;2022-08-30T15:45:14;20.52;;;11.98;;
30818;SDS011;17546;42.674;23.284;2022-08-30T15:47:39;27.25;;;13.60;;
30818;SDS011;17546;42.674;23.284;2022-08-30T15:50:05;26.23;;;12.02;;
30818;SDS011;17546;42.674;23.284;2022-08-30T15:52:31;32.47;;;12.82;;
30818;SDS011;17546;42.674;23.284;2022-08-30T15:54:57;23.27;;;12.70;;
30818;SDS011;17546;42.674;23.284;2022-08-30T15:57:23;32.88;;;12.52;;
30818;SDS011;17546;42.674;23.284;2022-08-30T15:59:50;25.95;;;12.20;;
30818;SDS011;17546;42.674;23.284;2022-08-30T16:02:15;21.88;;;12.48;;